createdAt,value
2022-11-26T00:04:13.854Z,11.71
2022-11-26T00:06:42.191Z,11.70
2022-11-26T00:09:14.490Z,11.69
2022-11-26T00:11:41.793Z,11.69
2022-11-26T00:14:16.905Z,11.70
2022-11-26T00:16:44.881Z,11.71
2022-11-26T00:19:12.019Z,11.73
2022-11-26T00:21:40.978Z,11.72
2022-11-26T00:24:14.703Z,11.74
2022-11-26T00:26:41.609Z,11.71
2022-11-26T00:29:09.634Z,11.69
2022-11-26T00:31:36.605Z,11.71
2022-11-26T00:34:03.809Z,11.70
2022-11-26T00:39:49.128Z,11.70
2022-11-26T00:42:15.969Z,11.72
2022-11-26T00:44:44.451Z,11.72
2022-11-26T00:47:11.604Z,11.71
2022-11-26T00:49:38.589Z,11.70
2022-11-26T00:52:13.720Z,11.70
2022-11-26T00:54:40.860Z,11.68
2022-11-26T00:57:31.063Z,11.65
2022-11-26T00:59:57.990Z,11.66
2022-11-26T01:02:24.896Z,11.64
2022-11-26T01:04:51.844Z,11.62
2022-11-26T01:07:18.912Z,11.59
2022-11-26T01:09:49.734Z,11.59
2022-11-26T01:12:17.105Z,11.58
2022-11-26T01:14:44.032Z,11.59
2022-11-26T01:17:39.133Z,11.59
2022-11-26T01:20:22.727Z,11.60
2022-11-26T01:22:52.545Z,11.58
2022-11-26T01:25:21.985Z,11.60
2022-11-26T01:27:52.589Z,11.58
2022-11-26T01:30:22.869Z,11.59
2022-11-26T01:32:50.409Z,11.61
2022-11-26T01:35:20.315Z,11.62
2022-11-26T01:37:47.930Z,11.62
2022-11-26T01:40:27.429Z,11.61
2022-11-26T01:43:04.349Z,11.62
2022-11-26T01:45:31.509Z,11.61
2022-11-26T01:48:01.286Z,11.57
2022-11-26T01:53:47.025Z,11.61
2022-11-26T01:56:24.131Z,11.62
2022-11-26T01:58:55.190Z,11.61
2022-11-26T02:01:22.569Z,11.57
2022-11-26T02:03:56.139Z,11.57
2022-11-26T02:06:25.652Z,11.54
2022-11-26T02:08:54.350Z,11.54
2022-11-26T02:11:23.965Z,11.55
2022-11-26T02:13:53.771Z,11.56
2022-11-26T02:16:31.347Z,11.61
2022-11-26T02:19:06.866Z,11.63
2022-11-26T02:21:39.761Z,11.65
2022-11-26T02:24:07.994Z,11.66
2022-11-26T02:26:47.181Z,11.66
2022-11-26T02:29:24.051Z,11.65
2022-11-26T02:31:52.230Z,11.66
2022-11-26T02:34:26.879Z,11.69
2022-11-26T02:36:55.157Z,11.68
2022-11-26T02:39:23.642Z,11.69
2022-11-26T02:41:52.299Z,11.66
2022-11-26T02:44:25.319Z,11.67
2022-11-26T02:46:58.925Z,11.71
2022-11-26T02:49:40.825Z,11.74
2022-11-26T02:52:14.384Z,11.76
2022-11-26T02:54:44.734Z,11.76
2022-11-26T02:57:21.039Z,11.73
2022-11-26T02:59:49.545Z,11.73
2022-11-26T03:02:26.869Z,11.74
2022-11-26T03:05:01.094Z,11.73
2022-11-26T03:07:32.899Z,11.68
2022-11-26T03:10:02.067Z,11.66
2022-11-26T03:12:30.185Z,11.67
2022-11-26T03:14:57.438Z,11.67
2022-11-26T03:17:26.925Z,11.67
2022-11-26T03:19:54.178Z,11.67
2022-11-26T03:22:21.754Z,11.67
2022-11-26T03:24:49.377Z,11.71
2022-11-26T03:27:16.524Z,11.73
2022-11-26T03:29:43.917Z,11.70
2022-11-26T03:32:12.301Z,11.70
2022-11-26T03:34:39.993Z,11.68
2022-11-26T03:37:07.358Z,11.68
2022-11-26T03:39:36.009Z,11.67
2022-11-26T03:42:03.649Z,11.67
2022-11-26T03:44:30.816Z,11.67
2022-11-26T03:46:57.905Z,11.66
2022-11-26T03:49:25.330Z,11.63
2022-11-26T03:51:52.543Z,11.60
2022-11-26T03:57:39.798Z,11.64
2022-11-26T04:00:09.274Z,11.64
2022-11-26T04:02:42.510Z,11.65
2022-11-26T04:05:16.611Z,11.68
2022-11-26T04:07:52.643Z,11.72
2022-11-26T04:10:22.132Z,11.78
2022-11-26T04:12:51.801Z,11.80
2022-11-26T04:18:38.801Z,11.86
2022-11-26T04:21:15.550Z,11.85
2022-11-26T04:23:42.899Z,11.85
2022-11-26T04:32:47.383Z,11.82
2022-11-26T04:35:18.551Z,11.85
2022-11-26T04:37:52.539Z,11.89
2022-11-26T04:40:22.299Z,11.91
2022-11-26T04:42:50.012Z,11.90
2022-11-26T04:51:57.046Z,11.94
2022-11-26T04:54:24.361Z,11.96
2022-11-26T04:56:51.802Z,11.97
2022-11-26T04:59:18.947Z,11.96
2022-11-26T05:01:46.178Z,11.93
2022-11-26T05:04:13.339Z,11.93
2022-11-26T05:06:40.546Z,11.93
2022-11-26T05:09:07.770Z,11.94
2022-11-26T05:11:34.905Z,11.94
2022-11-26T05:14:02.162Z,11.93
2022-11-26T05:16:29.702Z,11.94
2022-11-26T05:18:57.045Z,11.95
2022-11-26T05:21:24.129Z,11.96
2022-11-26T05:23:52.724Z,11.96
2022-11-26T05:26:19.766Z,11.99
2022-11-26T05:28:47.051Z,11.99
2022-11-26T05:31:14.291Z,11.99
2022-11-26T05:33:41.379Z,11.98
2022-11-26T05:39:26.930Z,12.00
2022-11-26T05:41:54.361Z,12.00
2022-11-26T05:44:21.537Z,12.00
2022-11-26T05:46:48.956Z,11.99
2022-11-26T05:49:16.104Z,12.00
2022-11-26T05:51:43.384Z,11.99
2022-11-26T05:54:13.102Z,11.98
2022-11-26T05:56:40.454Z,11.97
2022-11-26T05:59:08.175Z,11.98
2022-11-26T06:01:35.249Z,11.98
2022-11-26T06:07:20.765Z,12.00
2022-11-26T06:09:47.979Z,11.99
2022-11-26T06:12:15.766Z,12.02
2022-11-26T06:14:43.691Z,12.01
2022-11-26T06:17:13.262Z,12.00
2022-11-26T06:19:43.415Z,11.98
2022-11-26T06:22:10.669Z,11.98
2022-11-26T06:24:38.222Z,11.96
2022-11-26T06:27:05.823Z,11.96
2022-11-26T06:29:33.163Z,11.96
2022-11-26T06:32:01.684Z,11.96
2022-11-26T06:34:33.971Z,11.98
2022-11-26T06:37:01.962Z,12.01
2022-11-26T06:39:31.352Z,12.00
2022-11-26T06:41:58.878Z,12.01
2022-11-26T06:44:26.623Z,12.01
2022-11-26T06:46:55.382Z,11.99
2022-11-26T06:49:22.690Z,11.99
2022-11-26T06:51:49.800Z,12.00
2022-11-26T06:54:16.985Z,11.97
2022-11-26T06:56:46.369Z,11.94
2022-11-26T06:59:15.950Z,11.93
2022-11-26T07:01:45.585Z,11.94
2022-11-26T07:04:13.598Z,11.95
2022-11-26T07:07:23.483Z,11.96
2022-11-26T07:09:55.052Z,11.96
2022-11-26T07:12:22.375Z,11.97
2022-11-26T07:14:49.638Z,11.97
2022-11-26T07:17:22.041Z,11.96
2022-11-26T07:19:51.264Z,11.97
2022-11-26T07:22:20.342Z,11.98
2022-11-26T07:24:57.545Z,11.97
2022-11-26T07:27:26.349Z,11.97
2022-11-26T07:29:58.641Z,11.97
2022-11-26T07:32:27.868Z,11.98
2022-11-26T07:35:01.583Z,11.99
2022-11-26T07:37:31.410Z,11.99
2022-11-26T07:40:01.168Z,12.00
2022-11-26T07:42:33.210Z,11.99
2022-11-26T07:45:02.363Z,11.97
2022-11-26T07:47:29.555Z,11.99
2022-11-26T07:49:56.897Z,11.99
2022-11-26T07:52:29.386Z,11.98
2022-11-26T07:54:57.118Z,11.96
2022-11-26T07:57:27.410Z,11.95
2022-11-26T07:59:56.482Z,11.94
2022-11-26T08:02:31.143Z,11.94
2022-11-26T08:05:07.568Z,11.95
2022-11-26T08:07:40.219Z,11.95
2022-11-26T08:10:10.821Z,11.97
2022-11-26T08:12:38.174Z,11.99
2022-11-26T08:15:05.475Z,12.00
2022-11-26T08:17:32.762Z,12.02
2022-11-26T08:19:59.857Z,12.02
2022-11-26T08:22:27.117Z,12.04
2022-11-26T08:24:54.289Z,12.06
2022-11-26T08:27:21.612Z,12.09
2022-11-26T08:29:48.844Z,12.13
2022-11-26T08:32:15.935Z,12.13
2022-11-26T08:34:44.348Z,12.15
2022-11-26T08:37:12.037Z,12.15
2022-11-26T08:39:39.328Z,12.17
2022-11-26T08:42:06.643Z,12.18
2022-11-26T08:44:36.064Z,12.20
2022-11-26T08:47:06.844Z,12.21
2022-11-26T08:49:34.130Z,12.22
2022-11-26T08:52:02.786Z,12.24
2022-11-26T08:57:48.799Z,12.27
2022-11-26T09:00:16.257Z,12.28
2022-11-26T09:02:43.332Z,12.29
2022-11-26T09:05:11.763Z,12.31
2022-11-26T09:07:46.412Z,12.31
2022-11-26T09:10:16.090Z,12.34
2022-11-26T09:12:43.337Z,12.37
2022-11-26T09:15:10.765Z,12.41
2022-11-26T09:17:38.181Z,12.45
2022-11-26T09:20:06.990Z,12.52
2022-11-26T09:22:34.921Z,12.58
2022-11-26T09:25:02.234Z,12.63
2022-11-26T09:27:30.770Z,12.66
2022-11-26T09:29:57.983Z,12.70
2022-11-26T09:32:33.844Z,12.71
2022-11-26T09:35:01.970Z,12.75
2022-11-26T09:37:30.411Z,12.78
2022-11-26T09:39:58.109Z,12.81
2022-11-26T09:42:28.841Z,12.85
2022-11-26T09:45:03.758Z,12.86
2022-11-26T09:47:37.848Z,12.90
2022-11-26T09:50:08.384Z,12.92
2022-11-26T09:52:39.022Z,12.95
2022-11-26T09:55:20.205Z,12.98
2022-11-26T09:57:52.822Z,13.02
2022-11-26T10:00:31.423Z,13.04
2022-11-26T10:02:59.292Z,13.07
2022-11-26T10:05:50.922Z,13.14
2022-11-26T10:08:50.553Z,13.19
2022-11-26T10:11:42.753Z,13.25
2022-11-26T10:14:11.549Z,13.28
2022-11-26T10:16:47.319Z,13.30
2022-11-26T10:19:22.606Z,13.33
2022-11-26T10:21:59.105Z,13.37
2022-11-26T10:27:50.988Z,13.50
2022-11-26T10:30:21.478Z,13.51
2022-11-26T10:32:49.614Z,13.55
2022-11-26T10:35:18.770Z,13.59
2022-11-26T10:37:46.789Z,13.61
2022-11-26T10:40:20.218Z,13.67
2022-11-26T10:42:58.727Z,13.70
2022-11-26T10:45:27.763Z,13.74
2022-11-26T10:48:11.165Z,13.76
2022-11-26T10:50:47.549Z,13.82
2022-11-26T10:53:18.118Z,13.88
2022-11-26T10:55:45.466Z,13.90
2022-11-26T10:58:17.531Z,13.93
2022-11-26T11:00:54.801Z,13.98
2022-11-26T11:03:44.532Z,13.97
2022-11-26T11:06:15.202Z,14.01
2022-11-26T11:08:45.620Z,14.05
2022-11-26T11:11:21.111Z,14.08
2022-11-26T11:14:24.181Z,14.09
2022-11-26T11:20:10.132Z,14.21
2022-11-26T11:22:38.079Z,14.23
2022-11-26T11:25:06.018Z,14.29
2022-11-26T11:27:51.945Z,14.30
2022-11-26T11:30:22.510Z,14.26
2022-11-26T11:32:56.079Z,14.30
2022-11-26T11:35:30.144Z,14.32
2022-11-26T11:37:58.349Z,14.31
2022-11-26T11:40:30.871Z,14.31
2022-11-26T11:43:01.256Z,14.29
2022-11-26T11:57:16.310Z,14.24
2022-11-26T12:00:17.553Z,14.22
2022-11-26T12:02:46.206Z,14.26
2022-11-26T12:07:57.759Z,14.32
2022-11-26T12:10:35.305Z,14.31
2022-11-26T12:13:05.240Z,14.30
2022-11-26T12:15:45.660Z,14.29
2022-11-26T12:18:26.846Z,14.32
2022-11-26T12:20:57.588Z,14.33
2022-11-26T12:23:30.462Z,14.37
2022-11-26T12:26:06.554Z,14.38
2022-11-26T12:28:37.531Z,14.40
2022-11-26T12:31:06.215Z,14.42
2022-11-26T12:33:33.557Z,14.43
2022-11-26T12:36:05.985Z,14.44
2022-11-26T12:38:37.345Z,14.44
2022-11-26T12:41:13.993Z,14.46
2022-11-26T12:43:50.714Z,14.49
2022-11-26T12:46:20.246Z,14.53
2022-11-26T12:48:50.687Z,14.52
2022-11-26T12:51:25.156Z,14.50
2022-11-26T12:53:52.447Z,14.49
2022-11-26T12:56:20.651Z,14.50
2022-11-26T12:58:49.842Z,14.48
2022-11-26T13:01:17.187Z,14.50
2022-11-26T13:03:44.535Z,14.49
2022-11-26T13:06:18.345Z,14.50
2022-11-26T13:08:50.650Z,14.50
2022-11-26T13:11:28.632Z,14.48
2022-11-26T13:14:05.934Z,14.49
2022-11-26T13:16:43.804Z,14.50
2022-11-26T13:19:13.801Z,14.49
2022-11-26T13:21:56.066Z,14.45
2022-11-26T13:24:34.060Z,14.45
2022-11-26T13:27:13.114Z,14.45
2022-11-26T13:29:49.844Z,14.48
2022-11-26T13:32:29.049Z,14.51
2022-11-26T13:35:06.985Z,14.50
2022-11-26T13:37:44.074Z,14.50
2022-11-26T13:40:14.441Z,14.51
2022-11-26T13:42:49.214Z,14.51
2022-11-26T13:45:20.615Z,14.52
2022-11-26T13:47:58.001Z,14.50
2022-11-26T13:53:49.199Z,14.48
2022-11-26T13:56:21.566Z,14.44
2022-11-26T13:58:51.755Z,14.40
2022-11-26T14:01:59.121Z,14.37
2022-11-26T14:04:26.763Z,14.35
2022-11-26T14:07:05.705Z,14.34
2022-11-26T14:09:52.565Z,14.33
2022-11-26T14:12:23.130Z,14.31
2022-11-26T14:14:56.229Z,14.32
2022-11-26T14:20:50.946Z,14.32
2022-11-26T14:23:27.866Z,14.31
2022-11-26T14:25:58.101Z,14.34
2022-11-26T14:28:25.605Z,14.37
2022-11-26T14:30:53.044Z,14.37
2022-11-26T14:33:24.350Z,14.36
2022-11-26T14:35:57.848Z,14.36
2022-11-26T14:38:26.666Z,14.36
2022-11-26T14:40:58.475Z,14.37
2022-11-26T14:46:45.850Z,14.32
2022-11-26T14:49:16.903Z,14.32
2022-11-26T14:51:45.784Z,14.31
2022-11-26T14:54:16.757Z,14.33
2022-11-26T14:57:22.499Z,14.34
2022-11-26T14:59:58.612Z,14.36
2022-11-26T15:02:29.780Z,14.31
2022-11-26T15:04:58.974Z,14.32
2022-11-26T15:07:26.935Z,14.31
2022-11-26T15:10:06.405Z,14.33
2022-11-26T15:12:35.406Z,14.35
2022-11-26T15:15:04.333Z,14.32
2022-11-26T15:17:33.016Z,14.31
2022-11-26T15:20:02.355Z,14.28
2022-11-26T15:22:39.627Z,14.27
2022-11-26T15:25:15.963Z,14.27
2022-11-26T15:27:57.348Z,14.29
2022-11-26T15:30:29.404Z,14.33
2022-11-26T15:32:58.581Z,14.35
2022-11-26T15:38:56.232Z,14.32
2022-11-26T15:41:25.508Z,14.31
2022-11-26T15:43:59.482Z,14.40
2022-11-26T15:46:32.676Z,14.44
2022-11-26T15:49:08.498Z,14.39
2022-11-26T15:51:47.549Z,14.34
2022-11-26T15:54:20.887Z,14.28
2022-11-26T15:56:51.170Z,14.24
2022-11-26T15:59:19.091Z,14.25
2022-11-26T16:01:47.702Z,14.23
2022-11-26T16:04:35.751Z,14.25
2022-11-26T16:07:11.999Z,14.27
2022-11-26T16:09:42.185Z,14.28
2022-11-26T16:12:19.198Z,14.27
2022-11-26T16:14:46.498Z,14.30
2022-11-26T16:17:16.097Z,14.30
2022-11-26T16:19:55.291Z,14.26
2022-11-26T16:22:28.340Z,14.24
2022-11-26T16:25:05.320Z,14.25
2022-11-26T16:27:33.681Z,14.26
2022-11-26T16:30:14.997Z,14.25
2022-11-26T16:32:42.187Z,14.24
2022-11-26T16:35:37.505Z,14.23
2022-11-26T16:37:57.086Z,14.22
2022-11-26T16:40:24.671Z,14.17
2022-11-26T16:42:51.861Z,14.18
2022-11-26T16:45:19.469Z,14.21
2022-11-26T16:47:49.389Z,14.20
2022-11-26T16:50:17.927Z,14.19
2022-11-26T16:52:45.819Z,14.17
2022-11-26T16:55:14.373Z,14.15
2022-11-26T16:57:42.338Z,14.16
2022-11-26T17:00:15.425Z,14.18
2022-11-26T17:02:42.909Z,14.21
2022-11-26T17:05:10.806Z,14.25
2022-11-26T17:07:40.034Z,14.24
2022-11-26T17:10:08.140Z,14.24
2022-11-26T17:12:35.840Z,14.23
2022-11-26T17:15:03.041Z,14.21
2022-11-26T17:17:31.143Z,14.21
2022-11-26T17:19:58.478Z,14.21
2022-11-26T17:22:27.220Z,14.22
2022-11-26T17:24:54.765Z,14.24
2022-11-26T17:41:29.561Z,14.24
2022-11-26T17:43:58.177Z,14.25
2022-11-26T17:49:15.162Z,14.23
2022-11-26T17:51:51.361Z,14.27
2022-11-26T17:54:20.025Z,14.28
2022-11-26T17:56:47.411Z,14.27
2022-11-26T17:59:18.216Z,14.28
2022-11-26T18:01:47.367Z,14.31
2022-11-26T18:04:16.785Z,14.31
2022-11-26T18:06:57.376Z,14.29
2022-11-26T18:09:26.235Z,14.29
2022-11-26T18:12:02.340Z,14.28
2022-11-26T18:14:29.777Z,14.27
2022-11-26T18:16:57.350Z,14.28
2022-11-26T18:19:24.761Z,14.27
2022-11-26T18:21:52.240Z,14.24
2022-11-26T18:24:19.678Z,14.23
2022-11-26T18:26:47.079Z,14.21
2022-11-26T18:29:14.266Z,14.19
2022-11-26T18:31:41.645Z,14.18
2022-11-26T18:34:09.837Z,14.12
2022-11-26T18:36:37.501Z,14.12
2022-11-26T18:39:06.581Z,14.13
2022-11-26T18:41:34.367Z,14.13
2022-11-26T18:44:02.321Z,14.13
2022-11-26T18:46:29.734Z,14.16
2022-11-26T18:49:00.767Z,14.19
2022-11-26T18:51:29.272Z,14.21
2022-11-26T18:53:56.462Z,14.19
2022-11-26T18:56:24.046Z,14.14
2022-11-26T18:58:51.806Z,14.15
2022-11-26T19:01:21.356Z,14.18
2022-11-26T19:03:49.145Z,14.18
2022-11-26T19:06:18.205Z,14.17
2022-11-26T19:08:46.075Z,14.19
2022-11-26T19:11:15.306Z,14.20
2022-11-26T19:13:43.648Z,14.23
2022-11-26T19:16:17.069Z,14.25
2022-11-26T19:18:45.113Z,14.25
2022-11-26T19:21:20.829Z,14.22
2022-11-26T19:23:49.332Z,14.22
2022-11-26T19:26:19.848Z,14.22
2022-11-26T19:28:47.709Z,14.20
2022-11-26T19:31:21.720Z,14.18
2022-11-26T19:33:53.102Z,14.16
2022-11-26T19:36:21.032Z,14.19
2022-11-26T19:38:48.895Z,14.20
2022-11-26T19:41:20.089Z,14.22
2022-11-26T19:43:49.767Z,14.22
2022-11-26T19:46:18.802Z,14.21
2022-11-26T19:48:47.279Z,14.20
2022-11-26T19:51:15.317Z,14.17
2022-11-26T19:53:43.143Z,14.13
2022-11-26T19:56:13.889Z,14.11
2022-11-26T19:58:41.229Z,14.13
2022-11-26T20:01:09.637Z,14.14
2022-11-26T20:03:37.934Z,14.19
2022-11-26T20:06:06.853Z,14.24
2022-11-26T20:08:34.576Z,14.23
2022-11-26T20:11:03.756Z,14.23
2022-11-26T20:13:30.953Z,14.22
2022-11-26T20:15:58.149Z,14.23
2022-11-26T20:18:25.523Z,14.24
2022-11-26T20:21:00.965Z,14.26
2022-11-26T20:23:28.670Z,14.27
2022-11-26T20:25:56.388Z,14.31
2022-11-26T20:28:24.105Z,14.32
2022-11-26T20:34:10.761Z,14.34
2022-11-26T20:36:38.284Z,14.34
2022-11-26T20:39:05.673Z,14.34
2022-11-26T20:41:35.798Z,14.34
2022-11-26T20:44:02.967Z,14.35
2022-11-26T20:46:30.363Z,14.36
2022-11-26T20:48:57.687Z,14.36
2022-11-26T20:51:25.236Z,14.37
2022-11-26T20:53:53.248Z,14.36
2022-11-26T20:56:21.142Z,14.37
2022-11-26T20:58:48.813Z,14.37
2022-11-26T21:01:17.751Z,14.36
2022-11-26T21:04:22.481Z,14.32
2022-11-26T21:06:49.821Z,14.32
2022-11-26T21:09:16.871Z,14.34
2022-11-26T21:11:44.091Z,14.31
2022-11-26T21:14:14.988Z,14.34
2022-11-26T21:16:42.897Z,14.35
2022-11-26T21:19:11.821Z,14.36
2022-11-26T21:21:38.802Z,14.35
2022-11-26T21:24:06.766Z,14.37
2022-11-26T21:26:33.769Z,14.38
2022-11-26T21:29:01.884Z,14.38
2022-11-26T21:31:30.693Z,14.39
2022-11-26T21:34:01.387Z,14.41
2022-11-26T21:36:29.427Z,14.42
2022-11-26T21:38:56.545Z,14.40
2022-11-26T21:41:23.806Z,14.40
2022-11-26T21:43:51.261Z,14.40
2022-11-26T21:46:20.395Z,14.38
2022-11-26T21:48:47.441Z,14.39
2022-11-26T21:51:18.921Z,14.40
2022-11-26T21:53:46.765Z,14.41
2022-11-26T21:56:18.624Z,14.38
2022-11-26T21:58:46.122Z,14.39
2022-11-26T22:01:14.907Z,14.39
2022-11-26T22:03:42.697Z,14.41
2022-11-26T22:09:28.020Z,14.45
2022-11-26T22:11:54.925Z,14.42
2022-11-26T22:14:21.941Z,14.39
2022-11-26T22:16:51.645Z,14.39
2022-11-26T22:19:21.070Z,14.39
2022-11-26T22:21:48.516Z,14.34
2022-11-26T22:24:16.488Z,14.32
2022-11-26T22:26:43.786Z,14.33
2022-11-26T22:29:12.985Z,14.31
2022-11-26T22:31:40.227Z,14.32
2022-11-26T22:37:25.714Z,14.38
2022-11-26T22:39:54.038Z,14.35
2022-11-26T22:42:21.132Z,14.35
2022-11-26T22:44:48.404Z,14.33
2022-11-26T22:47:17.679Z,14.32
2022-11-26T22:50:22.076Z,14.33
2022-11-26T22:52:49.788Z,14.31
2022-11-26T22:55:16.998Z,14.29
2022-11-26T22:57:44.135Z,14.31
2022-11-26T23:00:13.685Z,14.31
2022-11-26T23:03:24.491Z,14.28
2022-11-26T23:05:52.267Z,14.28
2022-11-26T23:08:19.964Z,14.26
2022-11-26T23:10:48.744Z,14.22
2022-11-26T23:13:16.342Z,14.22
2022-11-26T23:15:44.953Z,14.18
2022-11-26T23:18:13.225Z,14.13
2022-11-26T23:20:40.620Z,14.07
2022-11-26T23:23:07.866Z,13.98
2022-11-26T23:25:38.506Z,13.89
2022-11-26T23:28:06.994Z,13.82
2022-11-26T23:30:34.384Z,13.80
2022-11-26T23:33:01.680Z,13.79
2022-11-26T23:35:28.539Z,13.74
2022-11-26T23:37:55.680Z,13.71
2022-11-26T23:40:23.894Z,13.68
2022-11-26T23:42:57.030Z,13.68
2022-11-26T23:45:23.980Z,13.67
2022-11-26T23:47:50.910Z,13.64
2022-11-26T23:50:17.939Z,13.61
2022-11-26T23:52:44.784Z,13.56
2022-11-26T23:55:11.984Z,13.53
2022-11-26T23:57:39.108Z,13.53
